Time,TemperatureF,DewpointF,PressureIn,WindDirection,WindDirectionDegrees,WindSpeedMPH,WindSpeedGustMPH,Humidity,HourlyPrecipIn,Conditions,Clouds,dailyrainin,SoftwareType,DateUTC
2013-08-18 00:02:00,72.7,32.7,29.71,SSW,213,1.0,8.0,23,0.00,,,0.00,meteohub,2013-08-18 06:02:00,
2013-08-18 00:07:00,72.7,33.8,29.71,SSW,213,0.0,8.0,24,0.00,,,0.00,meteohub,2013-08-18 06:07:00,
2013-08-18 00:12:00,72.3,32.4,29.71,SSW,213,2.0,8.0,23,0.00,,,0.00,meteohub,2013-08-18 06:12:00,
2013-08-18 00:17:00,72.0,34.2,29.71,SSW,212,1.0,5.0,25,0.00,,,0.00,meteohub,2013-08-18 06:17:00,
2013-08-18 00:22:00,71.4,34.7,29.71,SSW,212,1.0,4.0,26,0.00,,,0.00,meteohub,2013-08-18 06:22:00,
2013-08-18 00:27:00,70.9,35.2,29.71,SSW,212,0.0,4.0,27,0.00,,,0.00,meteohub,2013-08-18 06:27:00,
2013-08-18 00:32:00,70.3,35.6,29.71,SSW,212,0.0,3.0,28,0.00,,,0.00,meteohub,2013-08-18 06:32:00,
2013-08-18 00:37:00,70.0,35.4,29.71,SSW,212,0.0,3.0,28,0.00,,,0.00,meteohub,2013-08-18 06:37:00,
2013-08-18 00:42:00,69.4,34.9,29.71,SSW,212,0.0,1.0,28,0.00,,,0.00,meteohub,2013-08-18 06:42:00,
2013-08-18 00:47:00,68.7,38.5,29.72,SW,221,0.0,5.0,33,0.00,,,0.00,meteohub,2013-08-18 06:47:00,
2013-08-18 00:52:00,68.4,38.8,29.72,SW,221,1.0,5.0,34,0.00,,,0.00,meteohub,2013-08-18 06:52:00,
2013-08-18 00:57:00,67.6,39.7,29.72,SW,221,0.0,5.0,36,0.00,,,0.00,meteohub,2013-08-18 06:57:00,
2013-08-18 01:02:00,66.9,41.9,29.72,SW,221,0.0,2.0,40,0.00,,,0.00,meteohub,2013-08-18 07:02:00,
2013-08-18 01:07:00,66.4,41.4,29.72,SW,221,2.0,3.0,40,0.00,,,0.00,meteohub,2013-08-18 07:07:00,
2013-08-18 01:12:00,66.0,42.3,29.71,SW,221,2.0,3.0,42,0.00,,,0.00,meteohub,2013-08-18 07:12:00,
2013-08-18 01:17:00,65.5,41.7,29.71,SW,221,1.0,3.0,42,0.00,,,0.00,meteohub,2013-08-18 07:17:00,
2013-08-18 01:22:00,65.1,42.1,29.71,SW,221,2.0,3.0,43,0.00,,,0.00,meteohub,2013-08-18 07:22:00,
2013-08-18 01:27:00,64.8,43.5,29.71,SW,221,3.0,3.0,46,0.00,,,0.00,meteohub,2013-08-18 07:27:00,
2013-08-18 01:32:00,64.2,41.2,29.71,SW,221,0.0,4.0,43,0.00,,,0.00,meteohub,2013-08-18 07:32:00,
2013-08-18 01:37:00,64.0,41.2,29.71,SW,221,1.0,4.0,43,0.00,,,0.00,meteohub,2013-08-18 07:37:00,
2013-08-18 01:42:00,63.7,40.1,29.71,SW,221,1.0,4.0,42,0.00,,,0.00,meteohub,2013-08-18 07:42:00,
2013-08-18 01:47:00,63.5,40.6,29.71,SW,221,2.0,4.0,43,0.00,,,0.00,meteohub,2013-08-18 07:47:00,
2013-08-18 01:52:00,63.3,39.2,29.71,SW,221,3.0,4.0,41,0.00,,,0.00,meteohub,2013-08-18 07:52:00,
2013-08-18 01:57:00,63.1,39.0,29.71,SW,221,1.0,4.0,41,0.00,,,0.00,meteohub,2013-08-18 07:57:00,
2013-08-18 02:02:00,63.0,40.1,29.71,SW,221,0.0,3.0,43,0.00,,,0.00,meteohub,2013-08-18 08:02:00,
2013-08-18 02:07:00,62.8,39.9,29.72,SW,221,2.0,3.0,43,0.00,,,0.00,meteohub,2013-08-18 08:07:00,
2013-08-18 02:12:00,62.4,39.6,29.72,SW,221,1.0,3.0,43,0.00,,,0.00,meteohub,2013-08-18 08:12:00,
2013-08-18 02:17:00,62.2,38.8,29.72,SW,221,0.0,3.0,42,0.00,,,0.00,meteohub,2013-08-18 08:17:00,
2013-08-18 02:22:00,62.1,38.7,29.72,SW,221,0.0,3.0,42,0.00,,,0.00,meteohub,2013-08-18 08:22:00,
2013-08-18 02:27:00,61.9,39.7,29.71,SW,221,0.0,3.0,44,0.00,,,0.00,meteohub,2013-08-18 08:27:00,
2013-08-18 02:32:00,61.5,39.4,29.71,SW,221,1.0,3.0,44,0.00,,,0.00,meteohub,2013-08-18 08:32:00,
2013-08-18 02:37:00,61.3,40.5,29.71,SW,221,0.0,3.0,46,0.00,,,0.00,meteohub,2013-08-18 08:37:00,
2013-08-18 02:42:00,61.2,40.8,29.71,SW,221,0.0,3.0,47,0.00,,,0.00,meteohub,2013-08-18 08:42:00,
2013-08-18 02:47:00,61.0,40.1,29.71,SW,221,0.0,3.0,46,0.00,,,0.00,meteohub,2013-08-18 08:47:00,
2013-08-18 02:52:00,61.0,40.6,29.71,SW,221,0.0,3.0,47,0.00,,,0.00,meteohub,2013-08-18 08:52:00,
2013-08-18 02:57:00,60.4,40.6,29.71,SW,221,3.0,3.0,48,0.00,,,0.00,meteohub,2013-08-18 08:57:00,
2013-08-18 03:02:00,60.4,40.6,29.71,SW,221,1.0,4.0,48,0.00,,,0.00,meteohub,2013-08-18 09:02:00,
2013-08-18 03:07:00,60.4,41.2,29.71,SW,221,0.0,4.0,49,0.00,,,0.00,meteohub,2013-08-18 09:07:00,
2013-08-18 03:12:00,60.3,41.0,29.71,SW,221,1.0,4.0,49,0.00,,,0.00,meteohub,2013-08-18 09:12:00,
2013-08-18 03:17:00,59.9,41.2,29.71,SW,221,1.0,3.0,50,0.00,,,0.00,meteohub,2013-08-18 09:17:00,
2013-08-18 03:22:00,59.7,40.5,29.71,SW,221,1.0,3.0,49,0.00,,,0.00,meteohub,2013-08-18 09:22:00,
2013-08-18 03:27:00,59.5,40.8,29.71,SW,221,1.0,2.0,50,0.00,,,0.00,meteohub,2013-08-18 09:27:00,
2013-08-18 03:32:00,59.5,40.3,29.71,SW,221,1.0,2.0,49,0.00,,,0.00,meteohub,2013-08-18 09:32:00,
2013-08-18 03:37:00,59.2,40.1,29.71,SW,221,1.0,3.0,49,0.00,,,0.00,meteohub,2013-08-18 09:37:00,
2013-08-18 03:42:00,59.0,40.5,29.71,SW,221,3.0,3.0,50,0.00,,,0.00,meteohub,2013-08-18 09:42:00,
2013-08-18 03:47:00,58.8,40.8,29.71,SW,221,2.0,4.0,51,0.00,,,0.00,meteohub,2013-08-18 09:47:00,
2013-08-18 03:52:00,58.6,40.1,29.71,SW,221,0.0,4.0,50,0.00,,,0.00,meteohub,2013-08-18 09:52:00,
2013-08-18 03:57:00,58.6,40.6,29.71,SW,221,0.0,4.0,51,0.00,,,0.00,meteohub,2013-08-18 09:57:00,
2013-08-18 04:02:00,58.5,40.5,29.71,SW,221,1.0,3.0,51,0.00,,,0.00,meteohub,2013-08-18 10:02:00,
2013-08-18 04:07:00,58.3,40.3,29.72,SW,221,1.0,3.0,51,0.00,,,0.00,meteohub,2013-08-18 10:07:00,
2013-08-18 04:12:00,58.1,41.0,29.71,SW,221,1.0,3.0,53,0.00,,,0.00,meteohub,2013-08-18 10:12:00,
2013-08-18 04:17:00,57.9,41.9,29.72,SW,221,3.0,3.0,55,0.00,,,0.00,meteohub,2013-08-18 10:17:00,
2013-08-18 04:22:00,57.7,42.1,29.72,SW,221,2.0,4.0,56,0.00,,,0.00,meteohub,2013-08-18 10:22:00,
2013-08-18 04:27:00,57.6,41.5,29.72,SW,221,2.0,4.0,55,0.00,,,0.00,meteohub,2013-08-18 10:27:00,
2013-08-18 04:32:00,57.6,41.5,29.72,SW,221,2.0,4.0,55,0.00,,,0.00,meteohub,2013-08-18 10:32:00,
2013-08-18 04:37:00,57.6,43.0,29.73,SW,221,2.0,4.0,58,0.00,,,0.00,meteohub,2013-08-18 10:37:00,
2013-08-18 04:42:00,57.4,42.3,29.73,SW,221,0.0,4.0,57,0.00,,,0.00,meteohub,2013-08-18 10:42:00,
2013-08-18 04:47:00,57.2,41.7,29.73,SW,221,2.0,3.0,56,0.00,,,0.00,meteohub,2013-08-18 10:47:00,
2013-08-18 04:52:00,57.0,41.0,29.72,SW,221,1.0,3.0,55,0.00,,,0.00,meteohub,2013-08-18 10:52:00,
2013-08-18 04:57:00,56.8,41.7,29.73,SW,221,1.0,3.0,57,0.00,,,0.00,meteohub,2013-08-18 10:57:00,
2013-08-18 05:02:00,56.7,42.1,29.73,SW,221,1.0,3.0,58,0.00,,,0.00,meteohub,2013-08-18 11:02:00,
2013-08-18 05:07:00,56.7,42.1,29.73,SW,221,1.0,3.0,58,0.00,,,0.00,meteohub,2013-08-18 11:07:00,
2013-08-18 05:12:00,56.7,44.6,29.73,SW,221,1.0,3.0,64,0.00,,,0.00,meteohub,2013-08-18 11:12:00,
2013-08-18 05:17:00,56.5,43.7,29.73,SW,221,1.0,2.0,62,0.00,,,0.00,meteohub,2013-08-18 11:17:00,
2013-08-18 05:22:00,56.1,45.0,29.73,SW,221,1.0,2.0,66,0.00,,,0.00,meteohub,2013-08-18 11:22:00,
2013-08-18 05:27:00,55.9,43.2,29.73,SW,221,1.0,2.0,62,0.00,,,0.00,meteohub,2013-08-18 11:27:00,
2013-08-18 05:32:00,55.9,42.6,29.73,SW,221,1.0,2.0,61,0.00,,,0.00,meteohub,2013-08-18 11:32:00,
2013-08-18 05:37:00,55.8,43.3,29.73,SW,221,0.0,2.0,63,0.00,,,0.00,meteohub,2013-08-18 11:37:00,
2013-08-18 05:42:00,55.6,42.8,29.73,SW,221,0.0,2.0,62,0.00,,,0.00,meteohub,2013-08-18 11:42:00,
2013-08-18 05:47:00,55.2,42.4,29.73,SW,221,1.0,2.0,62,0.00,,,0.00,meteohub,2013-08-18 11:47:00,
2013-08-18 05:52:00,55.2,43.3,29.74,SW,221,0.0,2.0,64,0.00,,,0.00,meteohub,2013-08-18 11:52:00,
2013-08-18 05:57:00,55.0,43.9,29.74,SW,221,1.0,3.0,66,0.00,,,0.00,meteohub,2013-08-18 11:57:00,
2013-08-18 06:02:00,55.0,43.2,29.74,SW,221,1.0,3.0,64,0.00,,,0.00,meteohub,2013-08-18 12:02:00,
2013-08-18 06:07:00,55.0,44.2,29.74,SW,221,1.0,3.0,67,0.00,,,0.00,meteohub,2013-08-18 12:07:00,
2013-08-18 06:12:00,54.9,43.3,29.74,SW,221,2.0,3.0,65,0.00,,,0.00,meteohub,2013-08-18 12:12:00,
2013-08-18 06:17:00,54.7,43.5,29.74,SW,221,3.0,3.0,66,0.00,,,0.00,meteohub,2013-08-18 12:17:00,
2013-08-18 06:22:00,54.7,43.5,29.74,SW,221,2.0,4.0,66,0.00,,,0.00,meteohub,2013-08-18 12:22:00,
2013-08-18 06:27:00,54.7,43.5,29.75,SW,221,1.0,4.0,66,0.00,,,0.00,meteohub,2013-08-18 12:27:00,
2013-08-18 06:32:00,54.7,44.2,29.75,SW,221,1.0,4.0,68,0.00,,,0.00,meteohub,2013-08-18 12:32:00,
2013-08-18 06:37:00,54.7,44.2,29.75,SW,221,1.0,3.0,68,0.00,,,0.00,meteohub,2013-08-18 12:37:00,
2013-08-18 06:42:00,54.7,44.8,29.75,SW,221,2.0,3.0,69,0.00,,,0.00,meteohub,2013-08-18 12:42:00,
2013-08-18 06:47:00,54.9,45.0,29.75,SW,221,3.0,3.0,69,0.00,,,0.00,meteohub,2013-08-18 12:47:00,
2013-08-18 06:52:00,54.9,45.3,29.75,SW,221,2.0,4.0,70,0.00,,,0.00,meteohub,2013-08-18 12:52:00,
2013-08-18 06:57:00,55.0,45.5,29.75,SW,221,3.0,4.0,70,0.00,,,0.00,meteohub,2013-08-18 12:57:00,
2013-08-18 07:02:00,55.8,46.6,29.74,SW,221,0.0,4.0,71,0.00,,,0.00,meteohub,2013-08-18 13:02:00,
2013-08-18 07:07:00,56.5,46.4,29.74,SW,221,1.0,3.0,69,0.00,,,0.00,meteohub,2013-08-18 13:07:00,
2013-08-18 07:12:00,57.2,47.1,29.74,SW,221,0.0,3.0,69,0.00,,,0.00,meteohub,2013-08-18 13:12:00,
2013-08-18 07:17:00,57.9,48.2,29.74,SW,221,0.0,3.0,70,0.00,,,0.00,meteohub,2013-08-18 13:17:00,
2013-08-18 07:22:00,59.2,48.6,29.74,SW,221,0.0,2.0,68,0.00,,,0.00,meteohub,2013-08-18 13:22:00,
2013-08-18 07:27:00,60.1,48.7,29.74,SW,221,0.0,2.0,66,0.00,,,0.00,meteohub,2013-08-18 13:27:00,
2013-08-18 07:32:00,61.3,49.8,29.75,SW,221,0.0,1.0,66,0.00,,,0.00,meteohub,2013-08-18 13:32:00,
2013-08-18 07:37:00,62.4,50.0,29.74,SW,221,0.0,1.0,64,0.00,,,0.00,meteohub,2013-08-18 13:37:00,
2013-08-18 07:42:00,64.0,50.7,29.74,SW,221,0.0,1.0,62,0.00,,,0.00,meteohub,2013-08-18 13:42:00,
2013-08-18 07:47:00,64.9,50.7,29.74,SW,221,0.0,1.0,60,0.00,,,0.00,meteohub,2013-08-18 13:47:00,
2013-08-18 07:52:00,66.0,52.2,29.74,SW,221,0.0,0.0,61,0.00,,,0.00,meteohub,2013-08-18 13:52:00,
2013-08-18 07:57:00,66.7,52.9,29.74,SW,221,0.0,0.0,61,0.00,,,0.00,meteohub,2013-08-18 13:57:00,
2013-08-18 08:02:00,67.6,52.9,29.74,SW,221,0.0,0.0,59,0.00,,,0.00,meteohub,2013-08-18 14:02:00,
2013-08-18 08:07:00,68.4,53.1,29.74,SW,221,0.0,0.0,58,0.00,,,0.00,meteohub,2013-08-18 14:07:00,
2013-08-18 08:12:00,68.9,53.6,29.74,SW,221,0.0,1.0,58,0.00,,,0.00,meteohub,2013-08-18 14:12:00,
2013-08-18 08:17:00,69.4,53.6,29.74,SW,221,2.0,2.0,57,0.00,,,0.00,meteohub,2013-08-18 14:17:00,
2013-08-18 08:22:00,69.8,53.4,29.74,SW,221,1.0,2.0,56,0.00,,,0.00,meteohub,2013-08-18 14:22:00,
2013-08-18 08:27:00,70.3,52.3,29.74,SW,221,0.0,2.0,53,0.00,,,0.00,meteohub,2013-08-18 14:27:00,
2013-08-18 08:32:00,71.1,52.5,29.74,SW,221,0.0,2.0,52,0.00,,,0.00,meteohub,2013-08-18 14:32:00,
2013-08-18 08:37:00,71.8,53.2,29.73,SW,221,0.0,2.0,52,0.00,,,0.00,meteohub,2013-08-18 14:37:00,
2013-08-18 08:42:00,72.3,52.7,29.73,SW,221,0.0,1.0,50,0.00,,,0.00,meteohub,2013-08-18 14:42:00,
2013-08-18 08:47:00,73.2,53.4,29.74,SW,221,0.0,2.0,50,0.00,,,0.00,meteohub,2013-08-18 14:47:00,
2013-08-18 08:52:00,73.6,52.2,29.73,SW,221,0.0,2.0,47,0.00,,,0.00,meteohub,2013-08-18 14:52:00,
2013-08-18 08:57:00,73.9,52.5,29.73,SW,221,0.0,2.0,47,0.00,,,0.00,meteohub,2013-08-18 14:57:00,
2013-08-18 09:02:00,74.7,53.1,29.73,SW,221,2.0,2.0,47,0.00,,,0.00,meteohub,2013-08-18 15:02:00,
2013-08-18 09:07:00,74.7,52.5,29.73,SW,221,1.0,2.0,46,0.00,,,0.00,meteohub,2013-08-18 15:07:00,
2013-08-18 09:12:00,75.0,52.9,29.73,SW,221,1.0,2.0,46,0.00,,,0.00,meteohub,2013-08-18 15:12:00,
2013-08-18 09:17:00,75.9,53.1,29.73,SW,221,1.0,3.0,45,0.00,,,0.00,meteohub,2013-08-18 15:17:00,
2013-08-18 09:22:00,76.8,51.3,29.73,SW,221,0.0,3.0,41,0.00,,,0.00,meteohub,2013-08-18 15:22:00,
2013-08-18 09:27:00,77.7,52.2,29.73,SW,221,0.0,3.0,41,0.00,,,0.00,meteohub,2013-08-18 15:27:00,
2013-08-18 09:32:00,78.4,53.4,29.73,West,281,4.0,4.0,42,0.00,,,0.00,meteohub,2013-08-18 15:32:00,
2013-08-18 09:37:00,78.8,52.5,29.73,WNW,290,2.0,4.0,40,0.00,,,0.00,meteohub,2013-08-18 15:37:00,
2013-08-18 09:42:00,79.0,52.5,29.73,WNW,290,2.0,4.0,40,0.00,,,0.00,meteohub,2013-08-18 15:42:00,
2013-08-18 09:47:00,78.8,54.5,29.73,WNW,290,0.0,4.0,43,0.00,,,0.00,meteohub,2013-08-18 15:47:00,
2013-08-18 09:52:00,79.0,54.5,29.73,WNW,290,4.0,4.0,43,0.00,,,0.00,meteohub,2013-08-18 15:52:00,
2013-08-18 09:57:00,79.2,54.7,29.73,North,11,2.0,5.0,43,0.00,,,0.00,meteohub,2013-08-18 15:57:00,
2013-08-18 10:02:00,79.9,50.5,29.73,North,11,1.0,5.0,36,0.00,,,0.00,meteohub,2013-08-18 16:02:00,
2013-08-18 10:07:00,80.8,51.3,29.73,North,11,1.0,5.0,36,0.00,,,0.00,meteohub,2013-08-18 16:07:00,
2013-08-18 10:12:00,81.3,48.6,29.73,NNE,17,1.0,3.0,32,0.00,,,0.00,meteohub,2013-08-18 16:12:00,
2013-08-18 10:17:00,81.9,49.1,29.73,NNE,17,1.0,3.0,32,0.00,,,0.00,meteohub,2013-08-18 16:17:00,
2013-08-18 10:22:00,82.6,49.8,29.73,NNE,17,2.0,3.0,32,0.00,,,0.00,meteohub,2013-08-18 16:22:00,
2013-08-18 10:27:00,83.1,47.7,29.73,NNE,22,2.0,3.0,29,0.00,,,0.00,meteohub,2013-08-18 16:27:00,
2013-08-18 10:32:00,84.0,50.2,29.73,NE,56,3.0,4.0,31,0.00,,,0.00,meteohub,2013-08-18 16:32:00,
2013-08-18 10:37:00,84.0,49.3,29.73,East,89,2.0,4.0,30,0.00,,,0.00,meteohub,2013-08-18 16:37:00,
2013-08-18 10:42:00,84.7,50.7,29.73,East,97,4.0,5.0,31,0.00,,,0.00,meteohub,2013-08-18 16:42:00,
2013-08-18 10:47:00,84.9,49.1,29.73,East,98,4.0,6.0,29,0.00,,,0.00,meteohub,2013-08-18 16:47:00,
2013-08-18 10:52:00,85.3,49.5,29.73,East,98,0.0,6.0,29,0.00,,,0.00,meteohub,2013-08-18 16:52:00,
2013-08-18 10:57:00,86.2,49.3,29.73,East,95,4.0,6.0,28,0.00,,,0.00,meteohub,2013-08-18 16:57:00,
2013-08-18 11:02:00,86.4,47.5,29.73,ESE,106,1.0,6.0,26,0.00,,,0.00,meteohub,2013-08-18 17:02:00,
2013-08-18 11:07:00,86.4,48.4,29.73,East,96,2.0,7.0,27,0.00,,,0.00,meteohub,2013-08-18 17:07:00,
2013-08-18 11:12:00,86.4,44.2,29.73,NE,49,5.0,7.0,23,0.00,,,0.00,meteohub,2013-08-18 17:12:00,
2013-08-18 11:17:00,86.7,45.7,29.72,ENE,65,4.0,7.0,24,0.00,,,0.00,meteohub,2013-08-18 17:17:00,
2013-08-18 11:22:00,87.4,46.2,29.72,ENE,66,2.0,7.0,24,0.00,,,0.00,meteohub,2013-08-18 17:22:00,
2013-08-18 11:27:00,88.2,45.7,29.72,ENE,71,2.0,8.0,23,0.00,,,0.00,meteohub,2013-08-18 17:27:00,
2013-08-18 11:32:00,88.3,48.0,29.72,ESE,119,6.0,8.0,25,0.00,,,0.00,meteohub,2013-08-18 17:32:00,
2013-08-18 11:37:00,88.5,44.8,29.72,East,100,6.0,8.0,22,0.00,,,0.00,meteohub,2013-08-18 17:37:00,
2013-08-18 11:42:00,88.5,46.0,29.72,East,86,6.0,8.0,23,0.00,,,0.00,meteohub,2013-08-18 17:42:00,
2013-08-18 11:47:00,88.9,43.9,29.71,NE,56,3.0,8.0,21,0.00,,,0.00,meteohub,2013-08-18 17:47:00,
2013-08-18 11:52:00,89.1,42.8,29.71,East,80,8.0,8.0,20,0.00,,,0.00,meteohub,2013-08-18 17:52:00,
2013-08-18 11:57:00,89.8,37.6,29.71,East,92,4.0,8.0,16,0.00,,,0.00,meteohub,2013-08-18 17:57:00,
2013-08-18 12:02:00,89.4,38.8,29.71,East,100,7.0,11.0,17,0.00,,,0.00,meteohub,2013-08-18 18:02:00,
2013-08-18 12:07:00,89.2,38.7,29.71,ENE,71,4.0,11.0,17,0.00,,,0.00,meteohub,2013-08-18 18:07:00,
2013-08-18 12:12:00,89.2,38.7,29.70,SE,130,7.0,11.0,17,0.00,,,0.00,meteohub,2013-08-18 18:12:00,
2013-08-18 12:17:00,89.2,38.7,29.70,SSE,148,6.0,9.0,17,0.00,,,0.00,meteohub,2013-08-18 18:17:00,
2013-08-18 12:22:00,89.2,40.3,29.70,ESE,109,6.0,10.0,18,0.00,,,0.00,meteohub,2013-08-18 18:22:00,
2013-08-18 12:27:00,89.4,37.4,29.70,SSE,153,8.0,10.0,16,0.00,,,0.00,meteohub,2013-08-18 18:27:00,
2013-08-18 12:32:00,89.4,37.4,29.70,SE,141,6.0,11.0,16,0.00,,,0.00,meteohub,2013-08-18 18:32:00,
2013-08-18 12:37:00,89.2,38.7,29.71,SSE,163,6.0,11.0,17,0.00,,,0.00,meteohub,2013-08-18 18:37:00,
2013-08-18 12:42:00,89.2,43.0,29.71,South,169,4.0,11.0,20,0.00,,,0.00,meteohub,2013-08-18 18:42:00,
2013-08-18 12:47:00,88.9,43.9,29.71,South,186,3.0,8.0,21,0.00,,,0.00,meteohub,2013-08-18 18:47:00,
2013-08-18 12:52:00,88.2,39.4,29.71,SSW,209,6.0,8.0,18,0.00,,,0.00,meteohub,2013-08-18 18:52:00,
2013-08-18 12:57:00,87.8,36.0,29.71,SSW,211,9.0,9.0,16,0.00,,,0.00,meteohub,2013-08-18 18:57:00,
2013-08-18 13:02:00,87.3,37.2,29.71,SSW,213,3.0,14.0,17,0.00,,,0.00,meteohub,2013-08-18 19:02:00,
2013-08-18 13:07:00,86.5,37.9,29.72,South,172,5.0,14.0,18,0.00,,,0.00,meteohub,2013-08-18 19:07:00,
2013-08-18 13:12:00,85.8,38.8,29.72,SSW,211,14.0,15.0,19,0.00,,,0.00,meteohub,2013-08-18 19:12:00,
2013-08-18 13:17:00,85.5,37.0,29.72,SW,236,6.0,16.0,18,0.00,,,0.00,meteohub,2013-08-18 19:17:00,
2013-08-18 13:22:00,85.3,38.3,29.72,West,273,3.0,16.0,19,0.00,,,0.00,meteohub,2013-08-18 19:22:00,
2013-08-18 13:27:00,85.1,39.6,29.73,WSW,257,6.0,16.0,20,0.00,,,0.00,meteohub,2013-08-18 19:27:00,
2013-08-18 13:32:00,85.5,41.0,29.72,WNW,298,10.0,10.0,21,0.00,,,0.00,meteohub,2013-08-18 19:32:00,
2013-08-18 13:37:00,86.5,39.4,29.72,WSW,249,5.0,14.0,19,0.00,,,0.00,meteohub,2013-08-18 19:37:00,
2013-08-18 13:42:00,87.4,38.7,29.72,WNW,299,6.0,14.0,18,0.00,,,0.00,meteohub,2013-08-18 19:42:00,
2013-08-18 13:47:00,88.0,39.2,29.72,WNW,292,3.0,14.0,18,0.00,,,0.00,meteohub,2013-08-18 19:47:00,
2013-08-18 13:52:00,88.3,39.4,29.72,WNW,302,2.0,12.0,18,0.00,,,0.00,meteohub,2013-08-18 19:52:00,
2013-08-18 13:57:00,88.3,39.4,29.72,NW,304,4.0,8.0,18,0.00,,,0.00,meteohub,2013-08-18 19:57:00,
2013-08-18 14:02:00,88.0,39.2,29.72,NW,312,2.0,6.0,18,0.00,,,0.00,meteohub,2013-08-18 20:02:00,
2013-08-18 14:07:00,87.6,40.3,29.71,NNW,329,4.0,6.0,19,0.00,,,0.00,meteohub,2013-08-18 20:07:00,
2013-08-18 14:12:00,87.3,42.6,29.71,NNW,329,2.0,6.0,21,0.00,,,0.00,meteohub,2013-08-18 20:12:00,
2013-08-18 14:17:00,86.5,45.5,29.71,NNW,329,0.0,6.0,24,0.00,,,0.00,meteohub,2013-08-18 20:17:00,
2013-08-18 14:22:00,86.2,41.7,29.71,NNW,329,0.0,5.0,21,0.00,,,0.00,meteohub,2013-08-18 20:22:00,
2013-08-18 14:27:00,86.2,39.0,29.70,West,277,3.0,3.0,19,0.00,,,0.00,meteohub,2013-08-18 20:27:00,
2013-08-18 14:32:00,86.5,36.5,29.70,West,277,2.0,7.0,17,0.00,,,0.00,meteohub,2013-08-18 20:32:00,
2013-08-18 14:37:00,87.4,38.7,29.70,West,277,0.0,7.0,18,0.00,,,0.00,meteohub,2013-08-18 20:37:00,
2013-08-18 14:42:00,88.2,36.3,29.70,WSW,247,2.0,6.0,16,0.00,,,0.00,meteohub,2013-08-18 20:42:00,
2013-08-18 14:47:00,89.1,37.0,29.70,SW,218,4.0,6.0,16,0.00,,,0.00,meteohub,2013-08-18 20:47:00,
2013-08-18 14:52:00,90.1,36.3,29.70,SW,218,3.0,6.0,15,0.00,,,0.00,meteohub,2013-08-18 20:52:00,
2013-08-18 14:57:00,91.2,40.3,29.70,NNW,345,7.0,7.0,17,0.00,,,0.00,meteohub,2013-08-18 20:57:00,
2013-08-18 15:02:00,91.8,40.8,29.70,NNW,345,4.0,10.0,17,0.00,,,0.00,meteohub,2013-08-18 21:02:00,
2013-08-18 15:07:00,92.3,37.9,29.70,NNW,344,0.0,10.0,15,0.00,,,0.00,meteohub,2013-08-18 21:07:00,
2013-08-18 15:12:00,92.3,37.9,29.70,NNW,344,1.0,10.0,15,0.00,,,0.00,meteohub,2013-08-18 21:12:00,
2013-08-18 15:17:00,92.1,41.0,29.70,NNW,331,5.0,6.0,17,0.00,,,0.00,meteohub,2013-08-18 21:17:00,
2013-08-18 15:22:00,91.6,39.0,29.70,NW,311,4.0,9.0,16,0.00,,,0.00,meteohub,2013-08-18 21:22:00,
2013-08-18 15:27:00,91.2,40.3,29.70,North,0,6.0,9.0,17,0.00,,,0.00,meteohub,2013-08-18 21:27:00,
2013-08-18 15:32:00,91.0,38.7,29.70,NNW,343,6.0,9.0,16,0.00,,,0.00,meteohub,2013-08-18 21:32:00,
2013-08-18 15:37:00,90.7,36.7,29.70,West,280,5.0,9.0,15,0.00,,,0.00,meteohub,2013-08-18 21:37:00,
2013-08-18 15:42:00,90.3,39.6,29.70,WNW,288,4.0,8.0,17,0.00,,,0.00,meteohub,2013-08-18 21:42:00,
2013-08-18 15:47:00,90.0,37.8,29.70,WNW,288,5.0,8.0,16,0.00,,,0.00,meteohub,2013-08-18 21:47:00,
2013-08-18 15:52:00,89.2,40.3,29.70,WNW,302,5.0,8.0,18,0.00,,,0.00,meteohub,2013-08-18 21:52:00,
2013-08-18 15:57:00,88.5,41.0,29.70,WNW,292,4.0,7.0,19,0.00,,,0.00,meteohub,2013-08-18 21:57:00,
2013-08-18 16:02:00,87.8,39.0,29.70,WNW,292,1.0,7.0,18,0.00,,,0.00,meteohub,2013-08-18 22:02:00,
2013-08-18 16:07:00,87.3,41.4,29.70,WNW,292,2.0,7.0,20,0.00,,,0.00,meteohub,2013-08-18 22:07:00,
2013-08-18 16:12:00,86.5,40.6,29.70,WNW,292,0.0,5.0,20,0.00,,,0.00,meteohub,2013-08-18 22:12:00,
2013-08-18 16:17:00,86.2,39.0,29.70,WNW,292,0.0,5.0,19,0.00,,,0.00,meteohub,2013-08-18 22:17:00,
2013-08-18 16:22:00,85.6,41.2,29.70,WNW,292,2.0,5.0,21,0.00,,,0.00,meteohub,2013-08-18 22:22:00,
2013-08-18 16:27:00,85.3,41.0,29.70,WNW,292,3.0,5.0,21,0.00,,,0.00,meteohub,2013-08-18 22:27:00,
2013-08-18 16:32:00,84.9,40.6,29.70,WNW,292,3.0,5.0,21,0.00,,,0.00,meteohub,2013-08-18 22:32:00,
2013-08-18 16:37:00,84.6,40.3,29.71,WNW,292,0.0,4.0,21,0.00,,,0.00,meteohub,2013-08-18 22:37:00,
2013-08-18 16:42:00,84.0,39.9,29.71,WNW,292,2.0,4.0,21,0.00,,,0.00,meteohub,2013-08-18 22:42:00,
2013-08-18 16:47:00,83.8,41.0,29.71,WNW,293,3.0,5.0,22,0.00,,,0.00,meteohub,2013-08-18 22:47:00,
2013-08-18 16:52:00,83.5,39.4,29.72,WNW,293,4.0,5.0,21,0.00,,,0.00,meteohub,2013-08-18 22:52:00,
2013-08-18 16:57:00,83.1,40.3,29.72,NNW,336,6.0,6.0,22,0.00,,,0.00,meteohub,2013-08-18 22:57:00,
2013-08-18 17:02:00,83.1,36.7,29.72,WNW,299,5.0,13.0,19,0.00,,,0.00,meteohub,2013-08-18 23:02:00,
2013-08-18 17:07:00,83.1,36.7,29.73,NW,306,8.0,13.0,19,0.00,,,0.00,meteohub,2013-08-18 23:07:00,
2013-08-18 17:12:00,83.1,35.2,29.73,NW,307,12.0,14.0,18,0.00,,,0.00,meteohub,2013-08-18 23:12:00,
2013-08-18 17:17:00,83.1,37.9,29.74,North,5,4.0,16.0,20,0.00,,,0.00,meteohub,2013-08-18 23:17:00,
2013-08-18 17:22:00,82.8,40.1,29.75,North,0,14.0,16.0,22,0.00,,,0.00,meteohub,2013-08-18 23:22:00,
2013-08-18 17:27:00,82.2,40.8,29.75,NNW,342,11.0,22.0,23,0.00,,,0.00,meteohub,2013-08-18 23:27:00,
2013-08-18 17:32:00,81.9,41.5,29.76,WNW,302,10.0,22.0,24,0.00,,,0.00,meteohub,2013-08-18 23:32:00,
2013-08-18 17:37:00,81.7,41.4,29.76,NNW,340,14.0,20.0,24,0.00,,,0.00,meteohub,2013-08-18 23:37:00,
2013-08-18 17:42:00,81.1,41.9,29.76,NNW,345,5.0,20.0,25,0.00,,,0.00,meteohub,2013-08-18 23:42:00,
2013-08-18 17:47:00,81.1,38.7,29.76,NE,34,7.0,16.0,22,0.00,,,0.00,meteohub,2013-08-18 23:47:00,
2013-08-18 17:52:00,81.0,38.5,29.75,WNW,288,4.0,19.0,22,0.00,,,0.00,meteohub,2013-08-18 23:52:00,
2013-08-18 17:57:00,81.0,38.5,29.76,NNW,348,8.0,19.0,22,0.00,,,0.00,meteohub,2013-08-18 23:57:00,
2013-08-18 18:02:00,81.0,40.8,29.75,NW,317,5.0,18.0,24,0.00,,,0.00,meteohub,2013-08-19 00:02:00,
2013-08-18 18:07:00,80.4,40.3,29.76,WNW,301,9.0,17.0,24,0.00,,,0.00,meteohub,2013-08-19 00:07:00,
2013-08-18 18:12:00,80.1,41.0,29.75,NNW,342,7.0,17.0,25,0.00,,,0.00,meteohub,2013-08-19 00:12:00,
2013-08-18 18:17:00,79.9,41.0,29.75,NNW,327,6.0,14.0,25,0.00,,,0.00,meteohub,2013-08-19 00:17:00,
2013-08-18 18:22:00,79.5,40.6,29.75,WNW,299,3.0,11.0,25,0.00,,,0.00,meteohub,2013-08-19 00:22:00,
2013-08-18 18:27:00,79.3,40.5,29.75,North,351,3.0,11.0,25,0.00,,,0.00,meteohub,2013-08-19 00:27:00,
2013-08-18 18:32:00,79.2,40.3,29.75,WNW,298,7.0,10.0,25,0.00,,,0.00,meteohub,2013-08-19 00:32:00,
2013-08-18 18:37:00,79.2,40.3,29.76,NW,310,6.0,10.0,25,0.00,,,0.00,meteohub,2013-08-19 00:37:00,
2013-08-18 18:42:00,79.2,40.3,29.75,NW,313,3.0,10.0,25,0.00,,,0.00,meteohub,2013-08-19 00:42:00,
2013-08-18 18:47:00,79.0,41.2,29.75,WNW,297,3.0,10.0,26,0.00,,,0.00,meteohub,2013-08-19 00:47:00,
2013-08-18 18:52:00,78.8,42.1,29.75,West,281,5.0,8.0,27,0.00,,,0.00,meteohub,2013-08-19 00:52:00,
2013-08-18 18:57:00,78.8,42.1,29.75,WNW,286,4.0,7.0,27,0.00,,,0.00,meteohub,2013-08-19 00:57:00,
2013-08-18 19:02:00,78.6,41.9,29.75,West,278,3.0,7.0,27,0.00,,,0.00,meteohub,2013-08-19 01:02:00,
2013-08-18 19:07:00,78.4,41.7,29.75,West,279,3.0,7.0,27,0.00,,,0.00,meteohub,2013-08-19 01:07:00,
2013-08-18 19:12:00,78.3,41.5,29.76,West,279,3.0,7.0,27,0.00,,,0.00,meteohub,2013-08-19 01:12:00,
2013-08-18 19:17:00,78.1,41.4,29.76,West,279,0.0,6.0,27,0.00,,,0.00,meteohub,2013-08-19 01:17:00,
2013-08-18 19:22:00,77.9,42.3,29.76,West,279,0.0,6.0,28,0.00,,,0.00,meteohub,2013-08-19 01:22:00,
2013-08-18 19:27:00,77.7,42.1,29.76,West,279,1.0,5.0,28,0.00,,,0.00,meteohub,2013-08-19 01:27:00,
2013-08-18 19:32:00,77.5,43.7,29.76,West,279,0.0,3.0,30,0.00,,,0.00,meteohub,2013-08-19 01:32:00,
2013-08-18 19:37:00,77.2,42.4,29.76,West,279,2.0,2.0,29,0.00,,,0.00,meteohub,2013-08-19 01:37:00,
2013-08-18 19:42:00,77.0,43.2,29.76,West,279,1.0,3.0,30,0.00,,,0.00,meteohub,2013-08-19 01:42:00,
2013-08-18 19:47:00,76.8,43.9,29.76,West,279,2.0,3.0,31,0.00,,,0.00,meteohub,2013-08-19 01:47:00,
2013-08-18 19:52:00,76.6,43.7,29.76,West,279,2.0,3.0,31,0.00,,,0.00,meteohub,2013-08-19 01:52:00,
2013-08-18 19:57:00,76.3,42.6,29.76,West,279,2.0,3.0,30,0.00,,,0.00,meteohub,2013-08-19 01:57:00,
2013-08-18 20:02:00,76.1,43.3,29.77,West,279,2.0,4.0,31,0.00,,,0.00,meteohub,2013-08-19 02:02:00,
2013-08-18 20:07:00,75.9,43.2,29.77,West,279,0.0,4.0,31,0.00,,,0.00,meteohub,2013-08-19 02:07:00,
2013-08-18 20:12:00,75.7,43.0,29.78,West,279,0.0,4.0,31,0.00,,,0.00,meteohub,2013-08-19 02:12:00,
2013-08-18 20:17:00,75.6,45.1,29.78,West,279,0.0,3.0,34,0.00,,,0.00,meteohub,2013-08-19 02:17:00,
2013-08-18 20:22:00,75.4,45.9,29.78,West,279,1.0,2.0,35,0.00,,,0.00,meteohub,2013-08-19 02:22:00,
2013-08-18 20:27:00,75.0,44.8,29.78,West,279,3.0,3.0,34,0.00,,,0.00,meteohub,2013-08-19 02:27:00,
2013-08-18 20:32:00,74.8,45.3,29.78,SSE,158,1.0,5.0,35,0.00,,,0.00,meteohub,2013-08-19 02:32:00,
2013-08-18 20:37:00,74.7,45.1,29.78,SSE,158,2.0,5.0,35,0.00,,,0.00,meteohub,2013-08-19 02:37:00,
2013-08-18 20:42:00,74.7,43.7,29.78,SSE,158,0.0,5.0,33,0.00,,,0.00,meteohub,2013-08-19 02:42:00,
2013-08-18 20:47:00,74.7,45.9,29.78,SSE,158,0.0,4.0,36,0.00,,,0.00,meteohub,2013-08-19 02:47:00,
2013-08-18 20:52:00,74.5,45.0,29.78,SSE,158,0.0,4.0,35,0.00,,,0.00,meteohub,2013-08-19 02:52:00,
2013-08-18 20:57:00,73.9,46.0,29.78,SSE,159,5.0,5.0,37,0.00,,,0.00,meteohub,2013-08-19 02:57:00,
2013-08-18 21:02:00,73.6,41.9,29.79,SSE,159,4.0,5.0,32,0.00,,,0.00,meteohub,2013-08-19 03:02:00,
2013-08-18 21:07:00,73.2,41.5,29.79,SSE,159,2.0,6.0,32,0.00,,,0.00,meteohub,2013-08-19 03:07:00,
2013-08-18 21:12:00,73.2,42.4,29.80,SSE,157,2.0,6.0,33,0.00,,,0.00,meteohub,2013-08-19 03:12:00,
2013-08-18 21:17:00,73.6,42.6,29.80,SSE,155,2.0,6.0,33,0.00,,,0.00,meteohub,2013-08-19 03:17:00,
2013-08-18 21:22:00,73.2,43.2,29.80,SSE,155,0.0,6.0,34,0.00,,,0.00,meteohub,2013-08-19 03:22:00,
2013-08-18 21:27:00,73.2,43.2,29.80,SSE,155,1.0,6.0,34,0.00,,,0.00,meteohub,2013-08-19 03:27:00,
2013-08-18 21:32:00,72.9,43.5,29.80,SSE,155,2.0,6.0,35,0.00,,,0.00,meteohub,2013-08-19 03:32:00,
2013-08-18 21:37:00,72.3,43.2,29.81,SSE,155,1.0,4.0,35,0.00,,,0.00,meteohub,2013-08-19 03:37:00,
2013-08-18 21:42:00,72.0,43.5,29.81,SSE,155,2.0,4.0,36,0.00,,,0.00,meteohub,2013-08-19 03:42:00,
2013-08-18 21:47:00,71.4,44.4,29.81,SSE,155,1.0,4.0,38,0.00,,,0.00,meteohub,2013-08-19 03:47:00,
2013-08-18 21:52:00,71.1,44.8,29.82,SSE,155,2.0,4.0,39,0.00,,,0.00,meteohub,2013-08-19 03:52:00,
2013-08-18 21:57:00,70.5,44.4,29.81,SSE,155,4.0,4.0,39,0.00,,,0.00,meteohub,2013-08-19 03:57:00,
2013-08-18 22:02:00,70.2,44.8,29.81,SSE,155,2.0,5.0,40,0.00,,,0.00,meteohub,2013-08-19 04:02:00,
2013-08-18 22:07:00,69.6,45.0,29.81,SSE,155,2.0,5.0,41,0.00,,,0.00,meteohub,2013-08-19 04:07:00,
2013-08-18 22:12:00,69.3,44.6,29.81,SSE,155,1.0,5.0,41,0.00,,,0.00,meteohub,2013-08-19 04:12:00,
2013-08-18 22:17:00,68.7,44.8,29.81,SSE,155,1.0,5.0,42,0.00,,,0.00,meteohub,2013-08-19 04:17:00,
2013-08-18 22:22:00,68.4,44.4,29.81,SSE,155,4.0,4.0,42,0.00,,,0.00,meteohub,2013-08-19 04:22:00,
2013-08-18 22:27:00,67.8,43.9,29.81,SSE,155,2.0,4.0,42,0.00,,,0.00,meteohub,2013-08-19 04:27:00,
2013-08-18 22:32:00,67.6,44.4,29.81,SSE,155,2.0,4.0,43,0.00,,,0.00,meteohub,2013-08-19 04:32:00,
2013-08-18 22:37:00,67.3,44.1,29.81,SSE,155,1.0,5.0,43,0.00,,,0.00,meteohub,2013-08-19 04:37:00,
2013-08-18 22:42:00,67.1,43.9,29.81,SSE,155,2.0,5.0,43,0.00,,,0.00,meteohub,2013-08-19 04:42:00,
2013-08-18 22:47:00,66.9,43.2,29.81,SSW,198,2.0,6.0,42,0.00,,,0.00,meteohub,2013-08-19 04:47:00,
2013-08-18 22:52:00,66.9,43.2,29.81,SW,234,6.0,6.0,42,0.00,,,0.00,meteohub,2013-08-19 04:52:00,
2013-08-18 22:57:00,67.1,41.9,29.81,WSW,254,6.0,7.0,40,0.00,,,0.00,meteohub,2013-08-19 04:57:00,
2013-08-18 23:02:00,67.3,42.8,29.81,WSW,242,2.0,9.0,41,0.00,,,0.00,meteohub,2013-08-19 05:02:00,
2013-08-18 23:07:00,67.5,41.7,29.80,SW,232,3.0,9.0,39,0.00,,,0.00,meteohub,2013-08-19 05:07:00,
2013-08-18 23:12:00,67.6,41.7,29.80,SW,230,3.0,7.0,39,0.00,,,0.00,meteohub,2013-08-19 05:12:00,
2013-08-18 23:17:00,67.6,41.7,29.80,SW,221,4.0,7.0,39,0.00,,,0.00,meteohub,2013-08-19 05:17:00,
2013-08-18 23:22:00,67.8,41.9,29.80,SSW,212,4.0,6.0,39,0.00,,,0.00,meteohub,2013-08-19 05:22:00,
2013-08-18 23:27:00,68.2,41.5,29.80,SW,215,4.0,8.0,38,0.00,,,0.00,meteohub,2013-08-19 05:27:00,
2013-08-18 23:32:00,68.5,39.7,29.80,SW,236,5.0,11.0,35,0.00,,,0.00,meteohub,2013-08-19 05:32:00,
2013-08-18 23:37:00,69.3,40.5,29.80,SW,219,3.0,11.0,35,0.00,,,0.00,meteohub,2013-08-19 05:37:00,
2013-08-18 23:42:00,70.0,39.6,29.79,SSW,207,4.0,11.0,33,0.00,,,0.00,meteohub,2013-08-19 05:42:00,
2013-08-18 23:47:00,70.3,39.9,29.80,WSW,246,1.0,11.0,33,0.00,,,0.00,meteohub,2013-08-19 05:47:00,
2013-08-18 23:52:00,70.5,40.1,29.80,WSW,244,3.0,11.0,33,0.00,,,0.00,meteohub,2013-08-19 05:52:00,
2013-08-18 23:57:00,70.9,40.3,29.80,SSW,213,2.0,11.0,33,0.00,,,0.00,meteohub,2013-08-19 05:57:00,